Tamworth Airport
YSTW : now visible

Airfield :











YOU CAN JOIN US ON...

 
LOGIN :

Register | Disclaimer

   EN    FR    IT 

 









Legend :    VFR   Marginal VFR   IFR   Intensive IFR   Very Intensive IFR
Visi :
Ceiling :
>= 8 km
>= 3000ft
5 to 8 km
1000 to 3000 ft
1500m to 5 km
500 to 1000 ft
800 to 1500m
200 to 500 ft
< 800m
< 200 ft
Symbols :   Thunderstorms  Fog  Heavy snow  Heavy precipitations  Wind > 20 kt






- Airport Elevation : 1334 ft
- IATA code : TMW


YSTW - Tamworth

CURRENT METAR :
  • 280130Z AUTO 22005KT 170V250 9999 // SCT055 32/18 Q1015

EXPIRED METARs :
  • 280100Z AUTO 30005KT 270V340 9999 // NCD 31/19 Q1015 RF00.0/000.0
  • 280030Z AUTO 32006KT 290V360 9999 // NCD 30/19 Q1015 RF00.0/000.0
  • 280000Z AUTO 31007KT 270V330 9999 // NCD 30/19 Q1015 RF00.0/000.0
  • 272330Z AUTO 21003KT 9999 // NCD 30/20 Q1016 RF00.0/000.0
  • 272300Z AUTO 26005KT 190V300 9999 // NCD 28/18 Q1015

TAF TAF YSTW
Valid from the 28 at 00:00 until the 28 at 18:00 UTC


272308Z 2800/2818 31010KT 9999 SCT050
FM280800 36008KT CAVOK



MET'MAP, your aeronautical weather chart ! - Copyright ORBIFLY December 2007 - Disclaimer

ORBIFLY MET'MAP TEAM :

Programming & Development : Alexandra Zaïnal
Concept & original design : Baudouin d'Aumeries
Assistance for programming : Marc-Olivier Méhu
Technical & hardware support : Manuel Goepfert

Contact : metmap@orbifly.com




SOURCES & CREDITS :

   NOAA       Earth
Advisory